createdAt,value
2023-04-07T00:00:59.889Z,64.80
2023-04-07T00:03:29.301Z,64.90
2023-04-07T00:05:58.456Z,65.00
2023-04-07T00:08:27.603Z,65.20
2023-04-07T00:10:56.583Z,65.20
2023-04-07T00:13:25.653Z,65.40
2023-04-07T00:15:55.042Z,65.90
2023-04-07T00:18:23.981Z,66.10
2023-04-07T00:20:53.196Z,66.00
2023-04-07T00:23:22.668Z,66.20
2023-04-07T00:25:51.913Z,66.20
2023-04-07T00:28:20.966Z,66.00
2023-04-07T00:30:50.001Z,66.00
2023-04-07T00:33:19.107Z,65.80
2023-04-07T00:35:48.125Z,65.60
2023-04-07T00:38:17.524Z,65.50
2023-04-07T00:40:46.540Z,65.20
2023-04-07T00:43:15.487Z,65.10
2023-04-07T00:45:45.036Z,64.90
2023-04-07T00:48:14.086Z,64.40
2023-04-07T00:50:50.945Z,64.30
2023-04-07T00:53:51.154Z,64.30
2023-04-07T00:56:20.237Z,64.10
2023-04-07T00:58:49.220Z,63.60
2023-04-07T01:01:24.248Z,63.10
2023-04-07T01:04:24.547Z,63.00
2023-04-07T01:07:02.233Z,63.20
2023-04-07T01:09:41.738Z,62.20
2023-04-07T01:12:22.977Z,62.00
2023-04-07T01:15:01.011Z,62.00
2023-04-07T01:17:36.476Z,61.30
2023-04-07T01:20:10.167Z,61.70
2023-04-07T01:22:55.034Z,60.70
2023-04-07T01:26:09.725Z,60.30
2023-04-07T01:29:15.732Z,60.20
2023-04-07T01:31:45.930Z,59.90
2023-04-07T01:34:17.807Z,59.70
2023-04-07T01:36:48.591Z,59.50
2023-04-07T01:39:18.178Z,59.30
2023-04-07T01:41:47.827Z,59.20
2023-04-07T01:44:17.589Z,58.90
2023-04-07T01:46:46.809Z,58.90
2023-04-07T01:49:16.775Z,58.80
2023-04-07T01:51:46.492Z,58.70
2023-04-07T01:54:15.556Z,58.70
2023-04-07T01:56:45.043Z,58.50
2023-04-07T01:59:14.278Z,58.30
2023-04-07T02:01:43.690Z,58.20
2023-04-07T02:04:38.693Z,58.70
2023-04-07T02:07:17.611Z,57.80
2023-04-07T02:09:48.664Z,57.80
2023-04-07T02:12:19.234Z,57.80
2023-04-07T02:14:49.202Z,57.60
2023-04-07T02:17:20.412Z,57.50
2023-04-07T02:19:50.664Z,57.40
2023-04-07T02:22:20.765Z,57.40
2023-04-07T02:24:49.864Z,57.30
2023-04-07T02:27:19.986Z,57.30
2023-04-07T02:29:48.975Z,57.20
2023-04-07T02:32:19.188Z,57.00
2023-04-07T02:34:49.469Z,56.80
2023-04-07T02:37:18.634Z,56.70
2023-04-07T02:39:47.658Z,56.70
2023-04-07T02:42:16.667Z,56.60
2023-04-07T02:44:46.143Z,56.40
2023-04-07T02:47:15.706Z,56.40
2023-04-07T02:49:45.129Z,56.30
2023-04-07T02:52:15.215Z,56.10
2023-04-07T02:54:44.341Z,56.00
2023-04-07T02:57:15.046Z,55.70
2023-04-07T02:59:44.308Z,55.70
2023-04-07T03:02:13.745Z,55.50
2023-04-07T03:04:44.059Z,55.50
2023-04-07T03:07:13.000Z,55.50
2023-04-07T03:09:42.212Z,55.50
2023-04-07T03:12:11.492Z,55.40
2023-04-07T03:14:40.414Z,55.30
2023-04-07T03:17:10.449Z,55.30
2023-04-07T03:19:39.434Z,55.10
2023-04-07T03:22:08.553Z,55.10
2023-04-07T03:24:37.646Z,55.00
2023-04-07T03:27:06.846Z,54.70
2023-04-07T03:29:36.093Z,54.40
2023-04-07T03:32:05.268Z,54.10
2023-04-07T03:34:34.622Z,53.90
2023-04-07T03:37:03.592Z,53.60
2023-04-07T03:39:32.933Z,53.50
2023-04-07T03:42:02.288Z,53.10
2023-04-07T03:44:31.321Z,52.90
2023-04-07T03:47:00.680Z,52.80
2023-04-07T03:49:29.693Z,52.50
2023-04-07T03:51:58.909Z,52.40
2023-04-07T03:54:27.885Z,52.40
2023-04-07T03:56:58.534Z,52.20
2023-04-07T03:59:27.638Z,52.10
2023-04-07T04:01:56.985Z,51.90
2023-04-07T04:04:26.138Z,51.70
2023-04-07T04:06:55.192Z,51.80
2023-04-07T04:09:24.207Z,51.70
2023-04-07T04:11:53.108Z,51.80
2023-04-07T04:14:22.205Z,51.80
2023-04-07T04:16:54.056Z,51.50
2023-04-07T04:19:23.014Z,51.50
2023-04-07T04:21:52.478Z,51.50
2023-04-07T04:24:21.454Z,51.50
2023-04-07T04:26:50.404Z,51.90
2023-04-07T04:29:19.311Z,52.00
2023-04-07T04:31:48.618Z,52.00
2023-04-07T04:34:18.695Z,52.20
2023-04-07T04:36:47.895Z,52.20
2023-04-07T04:39:17.298Z,52.20
2023-04-07T04:41:47.389Z,52.20
2023-04-07T04:44:16.660Z,52.40
2023-04-07T04:46:45.852Z,52.20
2023-04-07T04:49:15.884Z,52.10
2023-04-07T04:51:44.841Z,52.40
2023-04-07T04:54:14.110Z,52.40
2023-04-07T04:56:43.973Z,52.30
2023-04-07T04:59:13.131Z,52.40
2023-04-07T05:01:42.512Z,52.40
2023-04-07T05:04:11.802Z,52.10
2023-04-07T05:06:40.895Z,52.40
2023-04-07T05:09:10.111Z,52.40
2023-04-07T05:11:39.067Z,52.40
2023-04-07T05:14:08.003Z,52.40
2023-04-07T05:16:37.924Z,52.40
2023-04-07T05:19:07.586Z,52.50
2023-04-07T05:21:36.667Z,52.40
2023-04-07T05:24:08.076Z,52.30
2023-04-07T05:26:38.115Z,52.10
2023-04-07T05:29:09.796Z,52.00
2023-04-07T05:31:38.792Z,52.00
2023-04-07T05:34:07.927Z,52.00
2023-04-07T05:36:37.709Z,51.80
2023-04-07T05:39:06.817Z,51.70
2023-04-07T05:41:35.809Z,51.60
2023-04-07T05:44:04.837Z,51.40
2023-04-07T05:46:33.802Z,51.20
2023-04-07T05:49:13.279Z,51.10
2023-04-07T05:51:49.317Z,50.90
2023-04-07T05:54:18.639Z,50.40
2023-04-07T05:56:47.914Z,50.40
2023-04-07T05:59:17.080Z,50.10
2023-04-07T06:01:46.318Z,50.00
2023-04-07T06:04:15.351Z,50.00
2023-04-07T06:06:44.329Z,49.70
2023-04-07T06:09:16.721Z,49.40
2023-04-07T06:11:48.561Z,49.40
2023-04-07T06:14:19.144Z,49.50
2023-04-07T06:16:48.334Z,49.40
2023-04-07T06:19:17.447Z,49.30
2023-04-07T06:21:48.500Z,49.10
2023-04-07T06:24:17.634Z,49.60
2023-04-07T06:26:47.853Z,48.90
2023-04-07T06:29:17.451Z,49.00
2023-04-07T06:31:46.725Z,48.80
2023-04-07T06:34:15.998Z,48.80
2023-04-07T06:36:46.014Z,48.60
2023-04-07T06:39:16.035Z,48.70
2023-04-07T06:41:45.010Z,48.30
2023-04-07T06:44:14.226Z,48.10
2023-04-07T06:46:43.462Z,48.70
2023-04-07T06:49:13.218Z,48.70
2023-04-07T06:51:42.672Z,48.90
2023-04-07T06:54:15.076Z,49.10
2023-04-07T06:56:45.202Z,49.00
2023-04-07T06:59:14.374Z,49.10
2023-04-07T07:01:48.022Z,49.00
2023-04-07T07:04:22.992Z,48.70
2023-04-07T07:06:52.042Z,49.00
2023-04-07T07:09:21.114Z,48.80
2023-04-07T07:11:50.098Z,48.70
2023-04-07T07:14:19.193Z,48.90
2023-04-07T07:16:48.151Z,48.90
2023-04-07T07:19:17.494Z,48.80
2023-04-07T07:21:50.101Z,48.90
2023-04-07T07:24:19.039Z,48.90
2023-04-07T07:26:47.970Z,48.80
2023-04-07T07:29:17.257Z,48.80
2023-04-07T07:31:46.216Z,48.90
2023-04-07T07:34:17.077Z,48.70
2023-04-07T07:36:46.115Z,48.90
2023-04-07T07:39:15.499Z,49.00
2023-04-07T07:41:48.002Z,49.10
2023-04-07T07:44:19.438Z,48.90
2023-04-07T07:46:48.662Z,48.90
2023-04-07T07:49:23.998Z,48.60
2023-04-07T07:51:55.784Z,49.00
2023-04-07T07:54:24.775Z,49.20
2023-04-07T07:56:54.139Z,49.20
2023-04-07T07:59:23.129Z,49.10
2023-04-07T08:01:52.360Z,49.20
2023-04-07T08:04:24.715Z,48.50
2023-04-07T08:06:54.469Z,48.50
2023-04-07T08:09:23.599Z,48.00
2023-04-07T08:11:52.700Z,47.00
2023-04-07T08:14:24.486Z,47.70
2023-04-07T08:16:53.524Z,48.10
2023-04-07T08:19:22.657Z,48.20
2023-04-07T08:21:51.634Z,48.30
2023-04-07T08:24:21.533Z,48.30
2023-04-07T08:26:50.552Z,48.40
2023-04-07T08:29:19.589Z,48.60
2023-04-07T08:31:48.842Z,48.60
2023-04-07T08:34:17.839Z,48.60
2023-04-07T08:36:46.780Z,48.70
2023-04-07T08:39:15.741Z,48.60
2023-04-07T08:41:46.526Z,48.70
2023-04-07T08:44:17.051Z,48.70
2023-04-07T08:46:46.408Z,48.90
2023-04-07T08:49:16.251Z,49.00
2023-04-07T08:51:51.859Z,49.10
2023-04-07T08:54:23.300Z,49.10
2023-04-07T08:56:52.907Z,48.80
2023-04-07T08:59:27.856Z,48.90
2023-04-07T09:01:57.661Z,48.60
2023-04-07T09:04:28.721Z,48.70
2023-04-07T09:06:57.788Z,48.50
2023-04-07T09:09:26.895Z,48.50
2023-04-07T09:11:56.007Z,48.70
2023-04-07T09:14:25.129Z,48.30
2023-04-07T09:16:58.759Z,48.60
2023-04-07T09:19:32.061Z,48.50
2023-04-07T09:22:01.272Z,48.60
2023-04-07T09:24:33.385Z,48.70
2023-04-07T09:27:17.370Z,48.40
2023-04-07T09:29:50.095Z,48.40
2023-04-07T09:32:45.727Z,48.60
2023-04-07T09:35:14.819Z,48.20
2023-04-07T09:37:43.942Z,48.60
2023-04-07T09:40:13.458Z,48.90
2023-04-07T09:42:49.514Z,49.00
2023-04-07T09:48:01.706Z,49.40
2023-04-07T09:50:42.260Z,49.30
2023-04-07T09:53:11.327Z,49.50
2023-04-07T09:55:45.104Z,49.50
2023-04-07T09:58:22.771Z,49.70
2023-04-07T10:00:59.301Z,49.80
2023-04-07T10:03:30.464Z,49.90
2023-04-07T10:06:07.777Z,50.10
2023-04-07T10:08:39.103Z,50.20
2023-04-07T10:11:08.477Z,50.30
2023-04-07T10:13:41.273Z,50.50
2023-04-07T10:16:11.016Z,50.50
2023-04-07T10:18:48.200Z,50.40
2023-04-07T10:21:19.515Z,50.40
2023-04-07T10:24:01.178Z,50.70
2023-04-07T10:26:34.422Z,50.60
2023-04-07T10:29:07.138Z,50.70
2023-04-07T10:31:36.491Z,51.30
2023-04-07T10:34:18.335Z,50.80
2023-04-07T10:37:18.888Z,51.20
2023-04-07T10:39:48.303Z,51.50
2023-04-07T10:42:38.788Z,51.30
2023-04-07T10:45:10.090Z,52.00
2023-04-07T10:48:01.877Z,51.50
2023-04-07T10:50:34.020Z,52.40
2023-04-07T10:53:16.755Z,51.90
2023-04-07T10:55:46.949Z,52.00
2023-04-07T10:58:26.642Z,52.10
2023-04-07T11:01:10.814Z,52.10
2023-04-07T11:03:57.452Z,52.80
2023-04-07T11:06:28.436Z,53.50
2023-04-07T11:08:57.661Z,52.60
2023-04-07T11:11:41.237Z,53.10
2023-04-07T11:14:10.275Z,53.40
2023-04-07T11:16:41.729Z,55.40
2023-04-07T11:19:11.386Z,53.00
2023-04-07T11:21:40.585Z,53.40
2023-04-07T11:24:09.618Z,53.60
2023-04-07T11:26:42.884Z,53.60
2023-04-07T11:29:13.249Z,53.90
2023-04-07T11:31:42.702Z,53.90
2023-04-07T11:34:13.245Z,53.80
2023-04-07T11:36:43.592Z,54.00
2023-04-07T11:39:23.465Z,54.20
2023-04-07T11:41:53.221Z,54.70
2023-04-07T11:44:22.448Z,54.20
2023-04-07T11:46:56.109Z,54.40
2023-04-07T11:49:26.304Z,54.50
2023-04-07T11:52:04.273Z,54.50
2023-04-07T11:54:49.327Z,55.00
2023-04-07T11:57:29.522Z,56.00
2023-04-07T12:00:12.852Z,56.10
2023-04-07T12:02:42.973Z,55.50
2023-04-07T12:05:12.382Z,55.50
2023-04-07T12:07:43.205Z,55.50
2023-04-07T12:10:22.902Z,56.00
2023-04-07T12:12:52.749Z,56.30
2023-04-07T12:15:21.913Z,57.00
2023-04-07T12:17:51.323Z,56.50
2023-04-07T12:20:20.459Z,57.20
2023-04-07T12:22:49.463Z,57.50
2023-04-07T12:25:18.431Z,56.80
2023-04-07T12:27:47.948Z,56.90
2023-04-07T12:30:16.891Z,56.80
2023-04-07T12:32:45.917Z,57.70
2023-04-07T12:35:14.887Z,58.00
2023-04-07T12:37:43.914Z,57.70
2023-04-07T12:40:13.506Z,58.00
2023-04-07T12:42:42.638Z,57.50
2023-04-07T12:45:12.063Z,57.40
2023-04-07T12:47:41.060Z,57.90
2023-04-07T12:50:10.145Z,57.70
2023-04-07T12:52:39.458Z,58.10
2023-04-07T12:55:08.965Z,57.70
2023-04-07T12:57:38.698Z,58.00
2023-04-07T13:00:08.265Z,58.00
2023-04-07T13:02:40.549Z,57.90
2023-04-07T13:05:09.803Z,57.90
2023-04-07T13:07:39.120Z,57.40
2023-04-07T13:10:09.494Z,57.10
2023-04-07T13:12:38.801Z,57.40
2023-04-07T13:15:10.944Z,57.00
2023-04-07T13:17:43.431Z,57.00
2023-04-07T13:20:12.642Z,56.80
2023-04-07T13:22:49.271Z,57.10
2023-04-07T13:25:20.945Z,56.90
2023-04-07T13:27:49.936Z,56.90
2023-04-07T13:30:21.535Z,57.00
2023-04-07T13:32:51.855Z,57.10
2023-04-07T13:35:20.967Z,57.60
2023-04-07T13:37:49.992Z,57.20
2023-04-07T13:40:19.011Z,57.20
2023-04-07T13:42:48.414Z,57.40
2023-04-07T13:45:17.499Z,57.10
2023-04-07T13:47:47.447Z,57.30
2023-04-07T13:50:17.043Z,57.40
2023-04-07T13:52:46.069Z,57.10
2023-04-07T13:55:15.158Z,57.60
2023-04-07T13:57:44.423Z,57.40
2023-04-07T14:00:14.212Z,57.30
2023-04-07T14:02:43.823Z,57.30
2023-04-07T14:05:12.866Z,57.50
2023-04-07T14:07:42.047Z,57.30
2023-04-07T14:10:11.168Z,57.50
2023-04-07T14:12:40.128Z,57.60
2023-04-07T14:15:09.824Z,57.50
2023-04-07T14:17:39.228Z,57.50
2023-04-07T14:20:08.980Z,57.60
2023-04-07T14:22:38.073Z,57.50
2023-04-07T14:25:07.608Z,57.70
2023-04-07T14:27:38.338Z,57.90
2023-04-07T14:30:08.189Z,58.00
2023-04-07T14:32:37.507Z,58.00
2023-04-07T14:35:06.843Z,58.00
2023-04-07T14:37:37.142Z,58.00
2023-04-07T14:40:07.190Z,58.10
2023-04-07T14:42:37.025Z,58.20
2023-04-07T14:45:06.318Z,58.20
2023-04-07T14:47:35.393Z,58.40
2023-04-07T14:50:05.036Z,58.40
2023-04-07T14:52:33.962Z,58.30
2023-04-07T14:55:03.372Z,58.50
2023-04-07T14:57:32.478Z,58.50
2023-04-07T15:00:01.615Z,58.70
2023-04-07T15:02:33.108Z,58.90
2023-04-07T15:05:02.294Z,58.80
2023-04-07T15:07:31.456Z,58.70
2023-04-07T15:10:01.398Z,58.80
2023-04-07T15:12:32.701Z,58.80
2023-04-07T15:15:01.690Z,58.90
2023-04-07T15:17:42.519Z,59.00
2023-04-07T15:20:14.014Z,59.00
2023-04-07T15:22:43.086Z,59.10
2023-04-07T15:25:12.315Z,59.30
2023-04-07T15:27:41.389Z,59.20
2023-04-07T15:30:10.817Z,59.30
2023-04-07T15:32:39.758Z,59.40
2023-04-07T15:35:09.107Z,59.60
2023-04-07T15:37:39.464Z,59.50
2023-04-07T15:40:09.157Z,59.70
2023-04-07T15:42:42.092Z,59.70
2023-04-07T15:45:11.757Z,59.80
2023-04-07T15:47:41.269Z,59.90
2023-04-07T15:50:11.127Z,60.00
2023-04-07T15:52:40.103Z,59.90
2023-04-07T15:55:09.311Z,60.00
2023-04-07T15:57:38.292Z,59.90
2023-04-07T16:00:07.902Z,60.10
2023-04-07T16:02:37.412Z,60.20
2023-04-07T16:05:06.762Z,60.00
2023-04-07T16:07:35.745Z,60.20
2023-04-07T16:10:05.297Z,60.20
2023-04-07T16:12:35.616Z,60.20
2023-04-07T16:15:05.048Z,60.20
2023-04-07T16:17:34.134Z,60.40
2023-04-07T16:20:03.190Z,60.40
2023-04-07T16:22:32.192Z,60.40
2023-04-07T16:25:01.274Z,60.40
2023-04-07T16:27:30.222Z,60.40
2023-04-07T16:29:59.206Z,60.60
2023-04-07T16:32:28.234Z,60.40
2023-04-07T16:34:57.172Z,60.40
2023-04-07T16:37:26.168Z,60.60
2023-04-07T16:39:59.326Z,60.60
2023-04-07T16:42:31.676Z,60.50
2023-04-07T16:45:02.824Z,60.70
2023-04-07T16:47:33.011Z,60.60
2023-04-07T16:50:02.033Z,60.50
2023-04-07T16:52:31.001Z,60.40
2023-04-07T16:55:00.736Z,60.60
2023-04-07T16:57:29.753Z,60.30
2023-04-07T16:59:58.744Z,60.60
2023-04-07T17:02:28.833Z,60.30
2023-04-07T17:04:57.960Z,60.30
2023-04-07T17:07:26.939Z,60.40
2023-04-07T17:09:56.006Z,60.60
2023-04-07T17:12:25.055Z,60.60
2023-04-07T17:14:54.054Z,60.20
2023-04-07T17:17:23.080Z,60.30
2023-04-07T17:19:52.164Z,60.50
2023-04-07T17:22:21.232Z,60.50
2023-04-07T17:24:50.223Z,60.60
2023-04-07T17:27:20.229Z,60.70
2023-04-07T17:29:49.219Z,60.60
2023-04-07T17:32:18.215Z,60.60
2023-04-07T17:34:47.614Z,61.10
2023-04-07T17:37:16.612Z,60.90
2023-04-07T17:39:45.648Z,61.10
2023-04-07T17:42:14.602Z,61.60
2023-04-07T17:44:44.153Z,61.40
2023-04-07T17:47:13.579Z,61.50
2023-04-07T17:49:43.323Z,61.90
2023-04-07T17:52:12.424Z,61.70
2023-04-07T17:54:41.399Z,61.80
2023-04-07T17:57:10.880Z,61.90
2023-04-07T17:59:40.056Z,61.80
2023-04-07T18:02:13.208Z,62.00
2023-04-07T18:04:42.476Z,62.00
2023-04-07T18:07:14.142Z,62.30
2023-04-07T18:09:44.174Z,62.10
2023-04-07T18:12:13.401Z,62.20
2023-04-07T18:14:42.929Z,62.20
2023-04-07T18:17:12.168Z,62.30
2023-04-07T18:19:41.674Z,62.20
2023-04-07T18:22:13.517Z,62.20
2023-04-07T18:24:42.475Z,62.30
2023-04-07T18:27:11.626Z,62.40
2023-04-07T18:29:40.618Z,62.40
2023-04-07T18:32:09.786Z,62.80
2023-04-07T18:34:38.810Z,62.50
2023-04-07T18:37:07.770Z,62.20
2023-04-07T18:39:37.092Z,62.60
2023-04-07T18:42:06.128Z,62.20
2023-04-07T18:44:35.087Z,62.50
2023-04-07T18:47:04.131Z,63.50
2023-04-07T18:49:33.132Z,63.40
2023-04-07T18:52:02.190Z,62.80
2023-04-07T18:54:31.616Z,63.00
2023-04-07T18:57:00.568Z,63.40
2023-04-07T18:59:29.634Z,63.20
2023-04-07T19:01:58.696Z,62.90
2023-04-07T19:04:27.761Z,63.00
2023-04-07T19:06:58.661Z,63.00
2023-04-07T19:09:27.695Z,63.20
2023-04-07T19:11:57.345Z,63.20
2023-04-07T19:14:26.628Z,63.20
2023-04-07T19:16:55.807Z,63.20
2023-04-07T19:19:24.756Z,62.80
2023-04-07T19:21:53.830Z,63.00
2023-04-07T19:24:22.834Z,63.40
2023-04-07T19:26:52.743Z,62.80
2023-04-07T19:29:21.712Z,63.00
2023-04-07T19:31:52.477Z,63.20
2023-04-07T19:34:21.603Z,63.60
2023-04-07T19:36:50.675Z,63.60
2023-04-07T19:39:19.608Z,64.00
2023-04-07T19:41:48.503Z,64.10
2023-04-07T19:44:19.338Z,64.00
2023-04-07T19:46:49.841Z,64.10
2023-04-07T19:49:19.223Z,64.20
2023-04-07T19:51:49.296Z,64.30
2023-04-07T19:54:18.789Z,64.40
2023-04-07T19:56:47.792Z,64.10
2023-04-07T19:59:16.809Z,64.20
2023-04-07T20:01:45.933Z,64.00
2023-04-07T20:04:14.994Z,64.60
2023-04-07T20:06:44.007Z,64.50
2023-04-07T20:09:13.133Z,65.30
2023-04-07T20:11:42.051Z,64.80
2023-04-07T20:14:11.048Z,64.10
2023-04-07T20:16:40.115Z,63.90
2023-04-07T20:19:09.118Z,64.30
2023-04-07T20:21:38.737Z,64.00
2023-04-07T20:24:12.361Z,64.20
2023-04-07T20:26:41.623Z,64.30
2023-04-07T20:29:10.730Z,64.00
2023-04-07T20:31:40.007Z,64.10
2023-04-07T20:34:09.968Z,64.40
2023-04-07T20:36:38.941Z,64.20
2023-04-07T20:39:08.162Z,64.90
2023-04-07T20:41:37.627Z,64.10
2023-04-07T20:44:06.708Z,64.30
2023-04-07T20:46:35.860Z,64.70
2023-04-07T20:49:06.416Z,64.90
2023-04-07T20:51:39.576Z,66.00
2023-04-07T20:54:09.245Z,66.10
2023-04-07T20:56:38.282Z,65.70
2023-04-07T20:59:07.456Z,66.90
2023-04-07T21:01:36.716Z,65.70
2023-04-07T21:04:06.080Z,66.10
2023-04-07T21:06:35.205Z,66.30
2023-04-07T21:09:06.774Z,66.60
2023-04-07T21:11:35.912Z,67.60
2023-04-07T21:14:05.618Z,65.90
2023-04-07T21:16:34.897Z,66.00
2023-04-07T21:19:04.679Z,67.00
2023-04-07T21:21:33.767Z,68.70
2023-04-07T21:24:02.797Z,69.00
2023-04-07T21:26:31.953Z,67.80
2023-04-07T21:29:01.067Z,68.50
2023-04-07T21:31:30.107Z,68.40
2023-04-07T21:33:59.129Z,68.50
2023-04-07T21:36:28.342Z,68.10
2023-04-07T21:38:57.512Z,68.40
2023-04-07T21:41:26.678Z,68.60
2023-04-07T21:43:55.729Z,68.60
2023-04-07T21:46:24.836Z,68.80
2023-04-07T21:48:54.085Z,69.40
2023-04-07T21:51:23.808Z,68.30
2023-04-07T21:53:53.529Z,69.80
2023-04-07T21:56:23.935Z,69.60
2023-04-07T21:58:53.247Z,70.00
2023-04-07T22:01:22.260Z,69.30
2023-04-07T22:03:51.911Z,68.80
2023-04-07T22:06:21.052Z,69.50
2023-04-07T22:09:00.606Z,69.60
2023-04-07T22:11:30.864Z,69.80
2023-04-07T22:14:00.153Z,70.80
2023-04-07T22:16:29.259Z,70.20
2023-04-07T22:18:58.300Z,70.00
2023-04-07T22:21:28.305Z,70.30
2023-04-07T22:23:57.249Z,70.10
2023-04-07T22:26:26.443Z,70.10
2023-04-07T22:28:55.371Z,70.00
2023-04-07T22:31:24.361Z,70.00
2023-04-07T22:33:53.343Z,70.00
2023-04-07T22:36:22.364Z,70.20
2023-04-07T22:38:51.336Z,70.40
2023-04-07T22:41:20.357Z,70.30
2023-04-07T22:43:49.422Z,70.20
2023-04-07T22:46:19.254Z,70.30
2023-04-07T22:48:48.665Z,70.20
2023-04-07T22:51:18.086Z,70.20
2023-04-07T22:53:47.535Z,70.30
2023-04-07T22:56:16.604Z,70.10
2023-04-07T22:58:45.601Z,70.30
2023-04-07T23:01:14.680Z,70.20
2023-04-07T23:03:43.880Z,70.20
2023-04-07T23:06:12.952Z,70.10
2023-04-07T23:08:41.980Z,70.00
2023-04-07T23:11:11.700Z,69.80
2023-04-07T23:13:40.754Z,70.00
2023-04-07T23:16:14.282Z,70.30
2023-04-07T23:18:44.000Z,70.00
2023-04-07T23:21:13.703Z,70.30
2023-04-07T23:23:43.176Z,69.90
2023-04-07T23:26:12.272Z,69.90
2023-04-07T23:28:41.220Z,69.90
2023-04-07T23:31:10.278Z,70.30
2023-04-07T23:33:39.352Z,70.60
2023-04-07T23:36:08.426Z,70.30
2023-04-07T23:38:37.605Z,70.40
2023-04-07T23:41:06.565Z,69.60
2023-04-07T23:43:35.833Z,70.40
2023-04-07T23:46:05.190Z,70.00
2023-04-07T23:48:34.197Z,69.80
2023-04-07T23:51:03.118Z,70.90
2023-04-07T23:53:32.105Z,71.20
2023-04-07T23:56:01.091Z,70.50
2023-04-07T23:58:30.129Z,70.50
